Time;durP1;ratioP1;P1;durP2;ratioP2;P2;SDS_P1;SDS_P2;PMS_P1;PMS_P2;Temp;Humidity;BMP_temperature;BMP_pressure;BME280_temperature;BME280_humidity;BME280_pressure;Samples;Min_cycle;Max_cycle;Signal;HPM_P1;HPM_P2
2022/06/27 00:00:09;;;;;;;23.92;5.78;;;;;;;;;;5108064;27;20032;-73
2022/06/27 00:02:37;;;;;;;27.10;6.07;;;;;;;;;;5109830;27;20024;-74
2022/06/27 00:05:03;;;;;;;25.08;5.90;;;;;;;;;;5105659;27;20035;-73
2022/06/27 00:07:30;;;;;;;29.30;6.15;;;;;;;;;;5108321;27;20024;-73
2022/06/27 00:09:56;;;;;;;23.00;6.00;;;;;;;;;;5107602;28;20552;-73
2022/06/27 00:12:22;;;;;;;30.73;8.00;;;;;;;;;;5107491;28;20073;-73
2022/06/27 00:14:48;;;;;;;35.20;17.05;;;;;;;;;;5110919;27;20101;-74
2022/06/27 00:17:14;;;;;;;48.40;33.13;;;;;;;;;;5115626;27;20403;-74
2022/06/27 00:19:40;;;;;;;66.13;39.28;;;;;;;;;;5103711;27;20044;-74
2022/06/27 00:22:06;;;;;;;55.13;38.15;;;;;;;;;;5105611;27;20035;-74
2022/06/27 00:24:33;;;;;;;46.40;29.50;;;;;;;;;;5107170;28;20162;-73
2022/06/27 00:26:59;;;;;;;34.15;19.08;;;;;;;;;;5121637;27;20027;-75
2022/06/27 00:29:25;;;;;;;34.65;15.50;;;;;;;;;;5106751;27;20038;-73
2022/06/27 00:31:51;;;;;;;33.42;14.95;;;;;;;;;;5107154;27;20023;-73
2022/06/27 00:34:18;;;;;;;29.35;13.52;;;;;;;;;;5107942;27;20088;-74
2022/06/27 00:36:44;;;;;;;28.83;11.40;;;;;;;;;;5106853;28;20035;-73
2022/06/27 00:39:11;;;;;;;30.30;9.95;;;;;;;;;;5113538;27;20099;-73
2022/06/27 00:41:37;;;;;;;23.20;7.90;;;;;;;;;;5105132;28;20027;-74
2022/06/27 00:44:03;;;;;;;21.00;7.72;;;;;;;;;;5114334;27;20055;-74
2022/06/27 00:46:30;;;;;;;30.65;8.77;;;;;;;;;;5111210;27;20036;-79
2022/06/27 00:48:56;;;;;;;24.88;8.98;;;;;;;;;;5115046;27;20031;-77
2022/06/27 00:51:24;;;;;;;21.70;6.38;;;;;;;;;;5112736;27;20034;-77
2022/06/27 00:53:52;;;;;;;24.23;6.63;;;;;;;;;;5104219;28;20125;-78
2022/06/27 00:56:18;;;;;;;23.08;7.07;;;;;;;;;;5115976;27;20461;-75
2022/06/27 00:58:44;;;;;;;28.25;6.47;;;;;;;;;;5108436;28;20024;-76
2022/06/27 01:01:10;;;;;;;23.45;6.32;;;;;;;;;;5106989;28;20028;-78
2022/06/27 01:03:36;;;;;;;25.90;5.15;;;;;;;;;;5110375;28;20023;-79
2022/06/27 01:06:03;;;;;;;23.00;6.20;;;;;;;;;;5104947;28;20048;-78
2022/06/27 01:08:29;;;;;;;22.42;5.95;;;;;;;;;;5116788;28;20026;-78
2022/06/27 01:10:56;;;;;;;21.33;5.47;;;;;;;;;;5113088;27;20037;-76
2022/06/27 01:13:22;;;;;;;22.75;6.38;;;;;;;;;;5109634;28;20117;-77
2022/06/27 01:15:48;;;;;;;27.27;6.68;;;;;;;;;;5107746;28;20077;-79
2022/06/27 01:18:15;;;;;;;32.55;6.88;;;;;;;;;;5120635;27;20027;-78
2022/06/27 01:20:45;;;;;;;24.70;6.05;;;;;;;;;;5118276;28;20098;-75
2022/06/27 01:23:12;;;;;;;23.30;5.78;;;;;;;;;;5106809;28;20039;-77
2022/06/27 01:25:39;;;;;;;22.08;6.03;;;;;;;;;;5109839;27;20031;-79
2022/06/27 01:28:05;;;;;;;24.58;6.80;;;;;;;;;;5108682;28;20031;-74
2022/06/27 01:30:32;;;;;;;36.42;6.50;;;;;;;;;;5106201;28;20046;-76
2022/06/27 01:32:58;;;;;;;29.27;6.40;;;;;;;;;;5116761;28;20019;-77
2022/06/27 01:35:24;;;;;;;26.08;6.53;;;;;;;;;;5106237;28;20027;-77
2022/06/27 01:37:50;;;;;;;19.85;6.50;;;;;;;;;;5098379;28;20020;-74
2022/06/27 01:40:17;;;;;;;35.95;7.13;;;;;;;;;;5095993;28;20032;-78
2022/06/27 01:42:44;;;;;;;24.77;5.55;;;;;;;;;;5098649;28;20487;-74
2022/06/27 01:45:10;;;;;;;25.55;6.28;;;;;;;;;;5119522;28;20047;-74
2022/06/27 01:47:36;;;;;;;28.55;5.97;;;;;;;;;;5102096;28;20037;-78
2022/06/27 01:50:03;;;;;;;29.75;5.88;;;;;;;;;;5112482;28;20080;-76
2022/06/27 01:52:29;;;;;;;28.30;6.90;;;;;;;;;;5112820;28;20495;-76
2022/06/27 01:54:56;;;;;;;23.17;6.07;;;;;;;;;;5109394;28;20031;-75
2022/06/27 01:57:23;;;;;;;20.27;5.97;;;;;;;;;;5115874;28;20039;-78
2022/06/27 01:59:52;;;;;;;26.77;5.13;;;;;;;;;;5106353;28;20023;-79
2022/06/27 02:02:19;;;;;;;18.70;5.18;;;;;;;;;;5114139;28;20488;-77
2022/06/27 02:04:45;;;;;;;33.08;5.68;;;;;;;;;;5107101;28;20378;-78
2022/06/27 02:07:12;;;;;;;23.98;5.88;;;;;;;;;;5110143;28;20089;-78
2022/06/27 02:09:38;;;;;;;27.70;6.18;;;;;;;;;;5114118;27;20027;-78
2022/06/27 02:12:20;;;;;;;20.33;5.72;;;;;;;;;;5103387;28;20451;-78
2022/06/27 02:14:48;;;;;;;25.50;6.32;;;;;;;;;;5120300;27;20023;-77
2022/06/27 02:17:15;;;;;;;17.88;4.50;;;;;;;;;;5104511;27;20487;-78
2022/06/27 02:19:41;;;;;;;30.88;6.47;;;;;;;;;;5109480;27;20372;-79
2022/06/27 02:22:09;;;;;;;27.70;5.55;;;;;;;;;;5111463;27;20032;-79
2022/06/27 02:24:35;;;;;;;23.65;5.53;;;;;;;;;;5109745;27;20032;-79
2022/06/27 02:27:01;;;;;;;25.23;6.10;;;;;;;;;;5118771;27;20087;-76
2022/06/27 02:29:27;;;;;;;27.45;5.78;;;;;;;;;;5109720;28;20031;-78
2022/06/27 02:31:53;;;;;;;25.25;5.72;;;;;;;;;;5110322;27;20038;-76
2022/06/27 02:34:20;;;;;;;34.03;5.85;;;;;;;;;;5109117;27;20604;-78
2022/06/27 02:36:48;;;;;;;26.85;5.68;;;;;;;;;;5114527;27;20039;-78
2022/06/27 02:39:21;;;;;;;25.13;5.60;;;;;;;;;;5109305;28;20573;-78
2022/06/27 02:41:47;;;;;;;25.13;6.30;;;;;;;;;;5131185;27;20023;-77
2022/06/27 02:44:14;;;;;;;30.13;5.47;;;;;;;;;;5109902;27;20634;-73
2022/06/27 02:46:41;;;;;;;21.20;5.05;;;;;;;;;;5108549;27;20043;-74
2022/06/27 02:49:07;;;;;;;21.83;5.55;;;;;;;;;;5113500;27;20027;-73
2022/06/27 02:51:36;;;;;;;28.20;5.82;;;;;;;;;;5109312;28;20031;-74
2022/06/27 02:54:08;;;;;;;23.65;5.63;;;;;;;;;;5117768;27;20107;-73
2022/06/27 02:56:36;;;;;;;21.85;5.75;;;;;;;;;;5114425;27;20022;-73
2022/06/27 02:59:04;;;;;;;21.23;6.03;;;;;;;;;;5111835;27;20418;-74
2022/06/27 03:01:31;;;;;;;25.92;5.97;;;;;;;;;;5117523;27;20020;-76
2022/06/27 03:03:58;;;;;;;25.50;5.40;;;;;;;;;;5115195;27;20027;-73
2022/06/27 03:06:24;;;;;;;23.92;5.70;;;;;;;;;;5119093;27;20031;-74
2022/06/27 03:08:51;;;;;;;22.98;5.60;;;;;;;;;;5107264;27;20039;-74
2022/06/27 03:11:21;;;;;;;24.55;5.45;;;;;;;;;;5109015;27;20031;-74
2022/06/27 03:13:48;;;;;;;27.88;5.57;;;;;;;;;;5108545;27;20080;-73
2022/06/27 03:16:15;;;;;;;30.70;6.43;;;;;;;;;;5103054;27;20299;-73
2022/06/27 03:18:41;;;;;;;21.65;5.53;;;;;;;;;;5114060;27;20020;-74
2022/06/27 03:21:08;;;;;;;28.58;5.22;;;;;;;;;;5100068;27;20039;-74
2022/06/27 03:23:34;;;;;;;26.70;5.95;;;;;;;;;;5100955;27;20023;-74
2022/06/27 03:26:00;;;;;;;22.48;5.00;;;;;;;;;;5105956;27;20118;-73
2022/06/27 03:28:26;;;;;;;26.08;5.00;;;;;;;;;;5100663;28;20028;-74
2022/06/27 03:30:52;;;;;;;21.13;5.53;;;;;;;;;;5105560;27;20046;-74
2022/06/27 03:33:18;;;;;;;19.50;4.88;;;;;;;;;;5103057;27;20028;-74
2022/06/27 03:35:44;;;;;;;27.48;5.72;;;;;;;;;;5100576;27;20032;-73
2022/06/27 03:38:14;;;;;;;23.45;5.10;;;;;;;;;;5102215;27;20479;-74
2022/06/27 03:40:40;;;;;;;17.10;4.75;;;;;;;;;;5100987;27;20096;-74
2022/06/27 03:43:06;;;;;;;25.17;5.45;;;;;;;;;;5113529;27;20042;-77
2022/06/27 03:45:33;;;;;;;28.02;5.40;;;;;;;;;;5100738;27;20039;-74
2022/06/27 03:48:00;;;;;;;26.15;5.47;;;;;;;;;;5114639;27;20135;-80
2022/06/27 03:50:26;;;;;;;24.50;5.03;;;;;;;;;;5103986;27;20093;-74
2022/06/27 03:52:54;;;;;;;15.65;4.13;;;;;;;;;;5098634;28;20019;-73
2022/06/27 03:55:20;;;;;;;17.70;4.28;;;;;;;;;;5105862;27;20058;-73
2022/06/27 03:57:50;;;;;;;21.85;4.80;;;;;;;;;;5103123;27;20036;-74
2022/06/27 04:00:17;;;;;;;21.27;4.57;;;;;;;;;;5091744;28;20462;-74
2022/06/27 04:02:43;;;;;;;19.73;5.00;;;;;;;;;;5108118;27;20031;-73
2022/06/27 04:05:09;;;;;;;17.95;4.47;;;;;;;;;;5099919;27;20093;-74
2022/06/27 04:07:36;;;;;;;20.17;5.35;;;;;;;;;;5104439;27;20049;-74
2022/06/27 04:10:02;;;;;;;20.17;5.32;;;;;;;;;;5100378;27;20027;-74
2022/06/27 04:12:28;;;;;;;26.25;5.28;;;;;;;;;;5100375;28;20028;-74
2022/06/27 04:14:54;;;;;;;20.98;5.40;;;;;;;;;;5106340;27;20554;-74
2022/06/27 04:17:20;;;;;;;25.48;5.38;;;;;;;;;;5100006;27;20612;-80
2022/06/27 04:19:46;;;;;;;23.20;5.60;;;;;;;;;;5103726;27;20501;-76
2022/06/27 04:22:13;;;;;;;21.40;5.75;;;;;;;;;;5100459;28;20039;-74
2022/06/27 04:24:39;;;;;;;18.83;5.50;;;;;;;;;;5098723;28;20559;-74
2022/06/27 04:27:05;;;;;;;22.15;5.50;;;;;;;;;;5107098;27;20027;-73
2022/06/27 04:29:32;;;;;;;22.70;4.93;;;;;;;;;;5099634;27;20035;-74
2022/06/27 04:31:58;;;;;;;23.35;5.25;;;;;;;;;;5101424;27;20024;-74
2022/06/27 04:34:24;;;;;;;19.90;5.07;;;;;;;;;;5098696;28;20038;-73
2022/06/27 04:36:51;;;;;;;22.88;5.63;;;;;;;;;;5099467;27;20020;-74
2022/06/27 04:39:19;;;;;;;27.02;5.63;;;;;;;;;;5106905;27;20028;-75
2022/06/27 04:41:46;;;;;;;24.67;6.38;;;;;;;;;;5099788;27;20118;-73
2022/06/27 04:44:12;;;;;;;25.80;7.28;;;;;;;;;;5104453;27;20065;-74
2022/06/27 04:46:42;;;;;;;24.08;7.25;;;;;;;;;;5093727;27;20048;-73
2022/06/27 04:49:09;;;;;;;15.18;6.25;;;;;;;;;;5102563;27;20142;-74
2022/06/27 04:51:36;;;;;;;30.73;7.85;;;;;;;;;;5100154;28;20039;-73
2022/06/27 04:54:02;;;;;;;25.13;7.25;;;;;;;;;;5093855;28;20020;-74
2022/06/27 04:56:30;;;;;;;19.27;6.28;;;;;;;;;;5106994;27;20089;-74
2022/06/27 04:58:56;;;;;;;23.08;6.75;;;;;;;;;;5097587;28;20031;-78
2022/06/27 05:01:22;;;;;;;21.90;6.80;;;;;;;;;;5099722;28;20080;-73
2022/06/27 05:03:48;;;;;;;21.30;6.78;;;;;;;;;;5099340;28;20110;-74
2022/06/27 05:06:14;;;;;;;26.33;7.53;;;;;;;;;;5099502;28;20518;-75
2022/06/27 05:08:40;;;;;;;25.92;6.65;;;;;;;;;;5104291;28;20027;-74
2022/06/27 05:11:06;;;;;;;20.25;6.80;;;;;;;;;;5099984;28;20035;-74
2022/06/27 05:13:33;;;;;;;21.55;6.93;;;;;;;;;;5104412;28;20067;-74
2022/06/27 05:16:00;;;;;;;21.73;7.07;;;;;;;;;;5102018;28;20042;-74
2022/06/27 05:18:26;;;;;;;16.65;6.78;;;;;;;;;;5097828;28;20024;-73
2022/06/27 05:20:52;;;;;;;18.35;7.00;;;;;;;;;;5103675;28;20384;-74
2022/06/27 05:23:18;;;;;;;25.58;7.35;;;;;;;;;;5099245;28;20081;-74
2022/06/27 05:25:44;;;;;;;29.20;7.55;;;;;;;;;;5105012;28;20031;-74
2022/06/27 05:28:10;;;;;;;29.45;7.45;;;;;;;;;;5100040;28;20028;-74
2022/06/27 05:30:37;;;;;;;17.35;6.50;;;;;;;;;;5099750;28;20038;-74
2022/06/27 05:33:03;;;;;;;16.05;6.20;;;;;;;;;;5091044;27;20680;-74
2022/06/27 05:35:29;;;;;;;22.45;6.80;;;;;;;;;;5092651;28;20040;-74
2022/06/27 05:37:55;;;;;;;22.38;6.90;;;;;;;;;;5102110;28;20020;-74
2022/06/27 05:40:22;;;;;;;17.35;6.22;;;;;;;;;;5110217;27;20031;-74
2022/06/27 05:42:49;;;;;;;24.73;8.02;;;;;;;;;;5113464;27;20047;-74
2022/06/27 05:45:16;;;;;;;24.65;9.48;;;;;;;;;;5111225;27;20046;-75
2022/06/27 05:47:42;;;;;;;29.65;12.90;;;;;;;;;;5099769;27;20079;-74
2022/06/27 05:50:09;;;;;;;29.90;11.85;;;;;;;;;;5109232;27;20111;-74
2022/06/27 05:52:39;;;;;;;27.17;10.43;;;;;;;;;;5112320;27;20043;-74
2022/06/27 05:55:05;;;;;;;28.02;11.10;;;;;;;;;;5114419;27;20622;-73
2022/06/27 05:57:32;;;;;;;28.10;9.02;;;;;;;;;;5110354;27;20026;-74
2022/06/27 05:59:58;;;;;;;23.90;7.72;;;;;;;;;;5108140;27;20089;-74
2022/06/27 06:02:25;;;;;;;23.90;7.80;;;;;;;;;;5111115;27;20766;-74
2022/06/27 06:04:55;;;;;;;22.10;7.50;;;;;;;;;;5097301;27;20508;-74
2022/06/27 06:07:22;;;;;;;25.77;6.53;;;;;;;;;;5090521;27;20869;-74
2022/06/27 06:09:49;;;;;;;26.75;7.13;;;;;;;;;;5090394;27;20309;-73
2022/06/27 06:12:17;;;;;;;20.50;6.88;;;;;;;;;;5091190;27;20024;-76
2022/06/27 06:14:43;;;;;;;24.80;6.63;;;;;;;;;;5088134;27;20034;-75
2022/06/27 06:17:09;;;;;;;26.15;6.18;;;;;;;;;;5087146;28;20031;-77
2022/06/27 06:19:36;;;;;;;24.25;7.00;;;;;;;;;;5087220;27;20024;-73
2022/06/27 06:22:02;;;;;;;31.17;7.07;;;;;;;;;;5084096;27;20149;-77
2022/06/27 06:24:28;;;;;;;25.83;6.40;;;;;;;;;;5083926;27;20024;-76
2022/06/27 06:26:56;;;;;;;23.13;6.72;;;;;;;;;;5095325;27;20496;-74
2022/06/27 06:29:22;;;;;;;34.58;8.35;;;;;;;;;;5085699;27;20781;-75
2022/06/27 06:31:49;;;;;;;29.20;6.80;;;;;;;;;;5099470;27;20034;-76
2022/06/27 06:34:16;;;;;;;28.63;7.22;;;;;;;;;;5105278;27;20019;-75
2022/06/27 06:36:43;;;;;;;19.65;6.40;;;;;;;;;;5101465;27;20507;-75
2022/06/27 06:39:09;;;;;;;25.33;6.60;;;;;;;;;;5091762;27;20031;-75
2022/06/27 06:41:36;;;;;;;23.63;6.55;;;;;;;;;;5084525;28;20108;-75
2022/06/27 06:44:05;;;;;;;23.45;6.30;;;;;;;;;;5093544;27;20043;-76
2022/06/27 06:46:32;;;;;;;23.67;6.55;;;;;;;;;;5095112;27;20047;-77
2022/06/27 06:49:02;;;;;;;30.25;7.88;;;;;;;;;;5095984;27;20060;-78
2022/06/27 06:51:31;;;;;;;31.40;6.75;;;;;;;;;;5084803;28;20031;-74
2022/06/27 06:53:58;;;;;;;27.08;7.72;;;;;;;;;;5092783;27;20040;-76
2022/06/27 06:56:24;;;;;;;27.83;7.05;;;;;;;;;;5094757;27;20027;-75
2022/06/27 06:58:50;;;;;;;31.30;8.23;;;;;;;;;;5089651;27;20023;-75
2022/06/27 07:01:18;;;;;;;32.83;7.95;;;;;;;;;;5103819;27;20055;-74
2022/06/27 07:03:44;;;;;;;33.00;6.30;;;;;;;;;;5092417;27;20559;-76
2022/06/27 07:06:12;;;;;;;40.78;7.78;;;;;;;;;;5093816;27;20047;-76
2022/06/27 07:08:39;;;;;;;25.27;6.30;;;;;;;;;;5092602;27;20028;-74
2022/06/27 07:11:07;;;;;;;30.13;7.18;;;;;;;;;;5088761;27;20098;-73
2022/06/27 07:13:33;;;;;;;24.65;6.60;;;;;;;;;;5082937;28;20552;-74
2022/06/27 07:15:59;;;;;;;23.05;5.75;;;;;;;;;;5109912;27;20555;-74
2022/06/27 07:18:26;;;;;;;25.42;6.70;;;;;;;;;;5102899;27;20069;-75
2022/06/27 07:20:52;;;;;;;28.17;6.90;;;;;;;;;;5118278;27;20026;-75
2022/06/27 07:23:19;;;;;;;30.60;7.47;;;;;;;;;;5106168;27;20031;-74
2022/06/27 07:25:45;;;;;;;29.20;6.63;;;;;;;;;;5117727;27;20031;-78
2022/06/27 07:28:12;;;;;;;30.40;6.90;;;;;;;;;;5100746;27;20035;-75
2022/06/27 07:30:41;;;;;;;28.50;6.47;;;;;;;;;;5115930;27;20042;-74
2022/06/27 07:33:08;;;;;;;25.35;6.55;;;;;;;;;;5110967;27;20054;-75
2022/06/27 07:35:34;;;;;;;31.60;7.00;;;;;;;;;;5103023;27;20110;-75
2022/06/27 07:38:01;;;;;;;22.27;5.78;;;;;;;;;;5117771;27;20072;-74
2022/06/27 07:40:27;;;;;;;33.67;7.22;;;;;;;;;;5090018;27;20341;-73
2022/06/27 07:42:54;;;;;;;29.83;6.85;;;;;;;;;;5117786;27;20043;-74
2022/06/27 07:45:21;;;;;;;25.73;6.43;;;;;;;;;;5114891;27;20087;-73
2022/06/27 07:47:48;;;;;;;20.52;6.05;;;;;;;;;;5092491;27;20061;-73
2022/06/27 07:53:12;;;;;;;31.13;7.13;;;;;;;;;;5099913;28;20348;-74
2022/06/27 07:55:40;;;;;;;25.23;6.90;;;;;;;;;;5094594;28;20024;-75
2022/06/27 07:58:07;;;;;;;23.50;6.90;;;;;;;;;;5095391;28;20616;-73
2022/06/27 08:00:33;;;;;;;29.42;7.43;;;;;;;;;;5100530;27;20024;-73
2022/06/27 08:03:36;;;;;;;23.13;6.32;;;;;;;;;;5092919;28;20031;-73
2022/06/27 08:05:47;;;;;;;30.95;6.68;;;;;;;;;;5081120;28;20126;-74
2022/06/27 08:08:13;;;;;;;23.55;6.50;;;;;;;;;;5096081;28;20483;-76
2022/06/27 08:10:39;;;;;;;25.52;5.95;;;;;;;;;;5100964;27;20020;-73
2022/06/27 08:13:06;;;;;;;39.40;7.32;;;;;;;;;;5095227;28;20081;-74
2022/06/27 08:15:32;;;;;;;28.95;7.00;;;;;;;;;;5097553;28;20063;-74
2022/06/27 08:18:00;;;;;;;33.33;7.07;;;;;;;;;;5087081;28;20032;-74
2022/06/27 08:20:26;;;;;;;22.52;6.00;;;;;;;;;;5081028;28;20032;-74
2022/06/27 08:22:53;;;;;;;29.10;7.15;;;;;;;;;;5082784;28;20046;-74
2022/06/27 08:25:19;;;;;;;25.80;6.90;;;;;;;;;;5080664;28;20119;-74
2022/06/27 08:27:46;;;;;;;41.28;8.73;;;;;;;;;;5082589;27;20028;-75
2022/06/27 08:30:14;;;;;;;24.02;6.10;;;;;;;;;;5098849;27;20027;-73
2022/06/27 08:32:41;;;;;;;25.85;6.47;;;;;;;;;;5082802;27;20383;-74
2022/06/27 08:35:08;;;;;;;29.67;7.03;;;;;;;;;;5097272;27;20019;-73
2022/06/27 08:37:34;;;;;;;28.95;6.95;;;;;;;;;;5083983;28;20419;-74
2022/06/27 08:40:01;;;;;;;32.13;6.47;;;;;;;;;;5088415;27;20169;-74
2022/06/27 08:42:28;;;;;;;34.17;7.53;;;;;;;;;;5088563;28;20047;-73
2022/06/27 08:44:55;;;;;;;26.33;6.38;;;;;;;;;;5081114;28;20032;-74
2022/06/27 08:47:22;;;;;;;31.17;6.97;;;;;;;;;;5098530;27;20982;-74
2022/06/27 08:49:51;;;;;;;33.85;8.00;;;;;;;;;;5099564;27;20123;-75
2022/06/27 08:52:18;;;;;;;30.92;6.60;;;;;;;;;;5100339;27;20023;-73
2022/06/27 08:54:45;;;;;;;26.20;7.10;;;;;;;;;;5092433;27;20024;-74
2022/06/27 08:57:12;;;;;;;29.88;7.53;;;;;;;;;;5098464;27;20474;-74
2022/06/27 08:59:38;;;;;;;36.75;7.88;;;;;;;;;;5084091;28;20499;-73
2022/06/27 09:02:05;;;;;;;25.15;6.47;;;;;;;;;;5083819;28;20081;-74
2022/06/27 09:04:47;;;;;;;24.02;6.60;;;;;;;;;;5086337;28;20126;-74
2022/06/27 09:07:14;;;;;;;23.88;6.93;;;;;;;;;;5092785;28;20270;-73
2022/06/27 09:09:40;;;;;;;26.38;6.68;;;;;;;;;;5088638;28;20505;-73
2022/06/27 09:12:06;;;;;;;31.23;7.05;;;;;;;;;;5085863;28;20065;-75
2022/06/27 09:14:35;;;;;;;31.95;7.28;;;;;;;;;;5089371;28;20024;-73
2022/06/27 09:17:04;;;;;;;21.85;6.60;;;;;;;;;;5089301;27;20034;-74
2022/06/27 09:19:49;;;;;;;40.53;7.60;;;;;;;;;;5099509;27;20495;-73
2022/06/27 09:22:17;;;;;;;25.15;6.95;;;;;;;;;;5095164;27;20035;-73
2022/06/27 09:25:02;;;;;;;25.23;7.88;;;;;;;;;;5107318;27;20030;-74
2022/06/27 09:27:36;;;;;;;29.88;6.95;;;;;;;;;;5106896;27;20038;-74
2022/06/27 09:30:21;;;;;;;28.75;7.65;;;;;;;;;;5112180;27;20032;-73
2022/06/27 09:32:49;;;;;;;28.27;7.07;;;;;;;;;;5093377;27;20027;-74
2022/06/27 09:35:30;;;;;;;30.15;7.60;;;;;;;;;;5096198;27;20027;-75
2022/06/27 09:38:01;;;;;;;25.30;7.43;;;;;;;;;;5087456;27;20032;-75
2022/06/27 09:40:29;;;;;;;33.90;7.45;;;;;;;;;;5086141;28;20016;-73
2022/06/27 09:42:56;;;;;;;31.35;8.43;;;;;;;;;;5092625;28;20048;-74
2022/06/27 09:45:27;;;;;;;32.35;7.18;;;;;;;;;;5095848;28;20040;-74
2022/06/27 09:47:57;;;;;;;34.25;7.45;;;;;;;;;;5093267;28;20069;-73
2022/06/27 09:50:23;;;;;;;32.78;8.68;;;;;;;;;;5087360;28;20036;-73
2022/06/27 09:52:50;;;;;;;26.30;6.88;;;;;;;;;;5095099;28;20023;-74
2022/06/27 09:55:18;;;;;;;26.65;7.55;;;;;;;;;;5106321;27;20050;-73
2022/06/27 09:57:44;;;;;;;34.85;7.97;;;;;;;;;;5108518;27;20030;-73
2022/06/27 10:00:11;;;;;;;39.25;8.23;;;;;;;;;;5090033;28;20032;-73
2022/06/27 10:02:38;;;;;;;32.60;7.93;;;;;;;;;;5088385;28;20526;-73
2022/06/27 10:05:05;;;;;;;25.58;6.93;;;;;;;;;;5087548;27;20043;-73
2022/06/27 10:07:32;;;;;;;30.05;7.18;;;;;;;;;;5083874;28;20105;-73
2022/06/27 10:09:58;;;;;;;28.70;7.55;;;;;;;;;;5080835;28;20027;-74
2022/06/27 10:12:24;;;;;;;31.45;7.00;;;;;;;;;;5083575;28;20035;-74
2022/06/27 10:15:09;;;;;;;34.60;7.43;;;;;;;;;;5085111;28;20016;-74
2022/06/27 10:17:42;;;;;;;33.67;7.13;;;;;;;;;;5098047;27;20020;-74
2022/06/27 10:20:13;;;;;;;37.40;7.88;;;;;;;;;;5095052;28;20330;-73
2022/06/27 10:22:39;;;;;;;30.65;7.72;;;;;;;;;;5090498;28;20032;-73
2022/06/27 10:25:24;;;;;;;31.58;7.72;;;;;;;;;;5083477;28;20038;-73
2022/06/27 10:28:10;;;;;;;37.22;8.07;;;;;;;;;;5087784;28;20020;-73
2022/06/27 10:30:46;;;;;;;26.30;7.30;;;;;;;;;;5086756;27;20079;-73
2022/06/27 10:33:18;;;;;;;32.28;7.55;;;;;;;;;;5082134;28;20028;-73
2022/06/27 10:36:04;;;;;;;26.85;7.20;;;;;;;;;;5082213;28;20034;-74
2022/06/27 10:38:43;;;;;;;39.03;8.85;;;;;;;;;;5083694;28;20028;-73
2022/06/27 10:41:10;;;;;;;30.00;7.65;;;;;;;;;;5089711;28;20031;-74
2022/06/27 10:43:36;;;;;;;27.88;7.97;;;;;;;;;;5093180;28;20107;-74
2022/06/27 10:46:06;;;;;;;37.10;8.35;;;;;;;;;;5105110;27;20067;-74
2022/06/27 10:48:36;;;;;;;25.15;7.65;;;;;;;;;;5092743;28;20035;-75
2022/06/27 10:51:21;;;;;;;31.27;7.77;;;;;;;;;;5093781;28;20031;-73
2022/06/27 10:54:11;;;;;;;28.33;7.35;;;;;;;;;;5091411;28;20024;-73
2022/06/27 10:56:45;;;;;;;34.90;8.50;;;;;;;;;;5101479;27;20230;-74
2022/06/27 10:59:14;;;;;;;29.67;8.00;;;;;;;;;;5104834;27;20590;-73
2022/06/27 11:02:02;;;;;;;24.55;7.97;;;;;;;;;;5092861;27;20024;-73
2022/06/27 11:04:29;;;;;;;31.63;8.35;;;;;;;;;;5083086;28;20430;-75
2022/06/27 11:07:00;;;;;;;30.25;7.70;;;;;;;;;;5081888;28;20089;-74
2022/06/27 11:09:46;;;;;;;31.65;7.68;;;;;;;;;;5086752;28;20032;-75
2022/06/27 11:12:13;;;;;;;32.63;7.97;;;;;;;;;;5082386;28;20036;-74
2022/06/27 11:14:49;;;;;;;24.38;6.43;;;;;;;;;;5088527;28;20255;-74
2022/06/27 11:17:27;;;;;;;30.88;7.70;;;;;;;;;;5086226;28;20038;-73
2022/06/27 11:20:12;;;;;;;34.20;8.23;;;;;;;;;;5083739;27;20779;-73
2022/06/27 11:22:39;;;;;;;32.80;7.57;;;;;;;;;;5093672;28;20035;-74
2022/06/27 11:25:05;;;;;;;26.48;6.45;;;;;;;;;;5113436;27;20463;-74
2022/06/27 11:27:50;;;;;;;29.67;6.93;;;;;;;;;;5103518;27;20112;-74
2022/06/27 11:33:10;;;;;;;30.50;7.78;;;;;;;;;;5099586;27;20123;-75
2022/06/27 11:35:37;;;;;;;30.75;7.57;;;;;;;;;;5121917;27;20100;-73
2022/06/27 11:38:05;;;;;;;33.03;7.38;;;;;;;;;;5116528;27;20080;-73
2022/06/27 11:40:31;;;;;;;30.88;8.52;;;;;;;;;;5113895;27;20028;-73
2022/06/27 11:42:58;;;;;;;27.95;7.47;;;;;;;;;;5101192;28;20051;-76
2022/06/27 11:45:24;;;;;;;30.90;8.15;;;;;;;;;;5104275;27;20039;-74
2022/06/27 11:47:50;;;;;;;30.70;7.00;;;;;;;;;;5098700;28;20588;-74
2022/06/27 11:50:18;;;;;;;26.75;7.72;;;;;;;;;;5099818;28;20499;-75
2022/06/27 11:52:52;;;;;;;24.75;7.55;;;;;;;;;;5092186;28;20033;-74
2022/06/27 11:55:24;;;;;;;24.55;6.88;;;;;;;;;;5087979;28;20030;-74
2022/06/27 11:57:54;;;;;;;27.17;7.75;;;;;;;;;;5086613;28;20019;-74
2022/06/27 12:00:28;;;;;;;26.95;7.63;;;;;;;;;;5099314;27;20284;-74
2022/06/27 12:03:04;;;;;;;26.90;7.75;;;;;;;;;;5101648;27;20034;-74
2022/06/27 12:05:30;;;;;;;29.27;7.68;;;;;;;;;;5111363;27;20031;-74
2022/06/27 12:08:01;;;;;;;30.00;7.07;;;;;;;;;;5110175;27;20024;-74
2022/06/27 12:10:36;;;;;;;31.98;8.20;;;;;;;;;;5104062;27;20031;-74
2022/06/27 12:13:20;;;;;;;29.13;7.50;;;;;;;;;;5108826;27;20106;-74
2022/06/27 12:15:47;;;;;;;36.58;8.68;;;;;;;;;;5099864;27;20036;-74
2022/06/27 12:18:14;;;;;;;28.08;7.07;;;;;;;;;;5097931;28;20027;-74
2022/06/27 12:20:41;;;;;;;30.13;7.57;;;;;;;;;;5115649;27;20071;-74
2022/06/27 12:23:08;;;;;;;26.17;7.28;;;;;;;;;;5113941;27;20062;-74
2022/06/27 12:25:37;;;;;;;29.05;7.60;;;;;;;;;;5105425;27;20569;-74
2022/06/27 12:28:08;;;;;;;31.35;7.90;;;;;;;;;;5106314;27;20510;-74
2022/06/27 12:30:34;;;;;;;29.50;8.07;;;;;;;;;;5105173;27;20038;-74
2022/06/27 12:33:01;;;;;;;32.40;8.30;;;;;;;;;;5102859;27;20100;-74
2022/06/27 12:35:27;;;;;;;28.73;7.32;;;;;;;;;;5111157;27;20024;-74
2022/06/27 12:37:59;;;;;;;32.65;8.23;;;;;;;;;;5111933;27;20028;-73
2022/06/27 12:40:25;;;;;;;35.20;8.65;;;;;;;;;;5100591;27;20008;-74
2022/06/27 12:42:51;;;;;;;31.90;8.35;;;;;;;;;;5107707;27;20125;-74
2022/06/27 12:45:18;;;;;;;33.15;7.70;;;;;;;;;;5103988;27;20526;-74
2022/06/27 12:47:46;;;;;;;26.27;7.78;;;;;;;;;;5094311;27;20108;-77
2022/06/27 12:50:13;;;;;;;23.73;6.82;;;;;;;;;;5091072;28;20028;-75
2022/06/27 12:52:39;;;;;;;31.88;7.05;;;;;;;;;;5104763;27;20431;-75
2022/06/27 12:55:05;;;;;;;39.20;7.75;;;;;;;;;;5096968;28;20030;-75
2022/06/27 12:57:32;;;;;;;24.40;7.13;;;;;;;;;;5099326;28;20383;-75
2022/06/27 12:59:58;;;;;;;35.65;8.45;;;;;;;;;;5105160;28;20040;-76
2022/06/27 13:02:24;;;;;;;24.42;6.68;;;;;;;;;;5101108;28;20034;-76
2022/06/27 13:04:50;;;;;;;22.48;6.57;;;;;;;;;;5105022;28;20642;-75
2022/06/27 13:07:16;;;;;;;26.95;6.95;;;;;;;;;;5109203;27;20100;-75
2022/06/27 13:09:43;;;;;;;27.38;7.25;;;;;;;;;;5100744;27;20035;-76
2022/06/27 13:12:10;;;;;;;27.55;7.13;;;;;;;;;;5106671;28;20027;-75
2022/06/27 13:14:37;;;;;;;30.23;7.25;;;;;;;;;;5103807;27;20067;-75
2022/06/27 13:17:03;;;;;;;27.70;6.55;;;;;;;;;;5101398;28;20475;-76
2022/06/27 13:19:30;;;;;;;29.83;6.75;;;;;;;;;;5105420;28;20031;-76
2022/06/27 13:21:56;;;;;;;23.90;6.45;;;;;;;;;;5104503;28;20503;-75
2022/06/27 13:24:22;;;;;;;24.85;6.55;;;;;;;;;;5106929;28;20100;-74
2022/06/27 13:26:48;;;;;;;24.23;7.07;;;;;;;;;;5101610;28;20038;-74
2022/06/27 13:29:15;;;;;;;22.65;6.45;;;;;;;;;;5112450;27;20035;-73
2022/06/27 13:31:41;;;;;;;21.85;6.20;;;;;;;;;;5098980;28;20024;-74
2022/06/27 13:34:07;;;;;;;23.35;7.07;;;;;;;;;;5083039;28;20055;-76
2022/06/27 13:36:34;;;;;;;26.92;7.25;;;;;;;;;;5102349;28;20027;-74
2022/06/27 13:39:00;;;;;;;23.70;6.63;;;;;;;;;;5100359;28;20028;-73
2022/06/27 13:41:26;;;;;;;27.58;6.65;;;;;;;;;;5101255;28;20119;-74
2022/06/27 13:43:52;;;;;;;24.95;6.38;;;;;;;;;;5101485;28;20039;-74
2022/06/27 13:46:18;;;;;;;18.35;6.93;;;;;;;;;;5106345;27;20036;-74
2022/06/27 13:48:44;;;;;;;29.60;6.63;;;;;;;;;;5096453;28;20026;-74
2022/06/27 13:51:10;;;;;;;25.17;6.55;;;;;;;;;;5109811;28;20027;-74
2022/06/27 13:53:36;;;;;;;31.52;6.63;;;;;;;;;;5099532;28;20589;-73
2022/06/27 13:56:03;;;;;;;27.13;6.63;;;;;;;;;;5092713;28;20031;-74
2022/06/27 13:58:29;;;;;;;28.92;7.07;;;;;;;;;;5086530;28;20028;-74
2022/06/27 14:00:55;;;;;;;26.23;6.25;;;;;;;;;;5088598;28;20050;-74
2022/06/27 14:03:21;;;;;;;26.52;7.00;;;;;;;;;;5086016;28;20662;-74
2022/06/27 14:05:48;;;;;;;23.02;7.65;;;;;;;;;;5088572;28;20406;-74
2022/06/27 14:08:14;;;;;;;26.17;6.88;;;;;;;;;;5090245;28;20104;-74
2022/06/27 14:10:56;;;;;;;33.97;7.50;;;;;;;;;;5087174;28;20086;-74
2022/06/27 14:13:22;;;;;;;22.88;7.03;;;;;;;;;;5094770;28;20048;-76
2022/06/27 14:15:49;;;;;;;33.28;7.47;;;;;;;;;;5085775;28;20028;-74
2022/06/27 14:18:15;;;;;;;20.13;6.15;;;;;;;;;;5094504;28;20080;-75
2022/06/27 14:20:41;;;;;;;24.38;6.63;;;;;;;;;;5083853;28;20489;-74
2022/06/27 14:23:07;;;;;;;25.80;7.28;;;;;;;;;;5093388;28;20103;-74
2022/06/27 14:25:33;;;;;;;28.20;7.55;;;;;;;;;;5087425;28;20081;-74
2022/06/27 14:27:59;;;;;;;34.28;8.10;;;;;;;;;;5097355;27;20019;-73
2022/06/27 14:30:25;;;;;;;24.45;6.90;;;;;;;;;;5089152;27;20103;-73
2022/06/27 14:32:52;;;;;;;32.35;7.53;;;;;;;;;;5088156;28;20111;-74
2022/06/27 14:35:18;;;;;;;26.17;7.00;;;;;;;;;;5086505;27;20064;-74
2022/06/27 14:37:44;;;;;;;32.00;7.68;;;;;;;;;;5091394;27;20403;-74